Colinas de San Agustin, Puerto Rico
Current Conditions -  °F | °C
As of 12:53 PM on Thursday 23 Oct 2014 (Local Time) from TJNR Reporting Station
Few Clouds Few Clouds  
Wind Chill: 87°   Ceiling: Unl
Heat Index: 96°   Visibility: 10mi
Dew Point: 75°   Wind: 13mph
Humidity: 67%   Direction: 110°ESE
Pressure: 29.94"   Gusts: NA
Location:  18.1853°N, 65.8667°W
Report Text: TJNR 231653Z AUTO 11011KT 10SM FEW041 31/24 A2994 RMK AO2 SLP138 T03060239 $
Loading
Personal Weather Stations






























Interactive Weather Map
Tropical Storm Tracking
New forecast layout! Learn more

10-Day Weather Forecast

Advertisements
Track Severe Weather on mobile